sensor_id;sensor_type;location;lat;lon;timestamp;P1;durP1;ratioP1;P2;durP2;ratioP2
25780;SDS011;13626;48.128;11.628;2022-11-15T11:16:57;2.88;;;2.08;;
25780;SDS011;13626;48.128;11.628;2022-11-15T11:35:14;2.58;;;1.88;;
25780;SDS011;13626;48.128;11.628;2022-11-15T11:37:49;2.30;;;1.67;;
25780;SDS011;13626;48.128;11.628;2022-11-15T11:48:13;1.95;;;1.70;;
25780;SDS011;13626;48.128;11.628;2022-11-15T11:50:41;1.75;;;1.60;;
25780;SDS011;13626;48.128;11.628;2022-11-15T11:53:12;2.33;;;1.95;;
25780;SDS011;13626;48.128;11.628;2022-11-15T11:55:47;2.28;;;2.08;;
25780;SDS011;13626;48.128;11.628;2022-11-15T12:00:46;2.83;;;1.42;;
25780;SDS011;13626;48.128;11.628;2022-11-15T12:03:18;1.75;;;1.65;;
25780;SDS011;13626;48.128;11.628;2022-11-15T12:05:57;2.47;;;1.73;;
25780;SDS011;13626;48.128;11.628;2022-11-15T12:11:10;1.80;;;1.52;;
25780;SDS011;13626;48.128;11.628;2022-11-15T12:13:39;3.78;;;2.05;;
25780;SDS011;13626;48.128;11.628;2022-11-15T12:18:44;3.92;;;2.42;;
25780;SDS011;13626;48.128;11.628;2022-11-15T12:21:14;2.92;;;2.00;;
25780;SDS011;13626;48.128;11.628;2022-11-15T12:23:48;2.63;;;1.90;;
25780;SDS011;13626;48.128;11.628;2022-11-15T12:26:17;3.40;;;2.13;;
25780;SDS011;13626;48.128;11.628;2022-11-15T12:28:47;2.20;;;1.80;;
25780;SDS011;13626;48.128;11.628;2022-11-15T12:31:39;2.45;;;2.25;;
25780;SDS011;13626;48.128;11.628;2022-11-15T12:36:47;2.40;;;2.00;;
25780;SDS011;13626;48.128;11.628;2022-11-15T12:39:15;2.75;;;2.03;;
25780;SDS011;13626;48.128;11.628;2022-11-15T12:41:43;4.25;;;2.55;;
25780;SDS011;13626;48.128;11.628;2022-11-15T12:44:11;3.25;;;2.03;;
25780;SDS011;13626;48.128;11.628;2022-11-15T13:27:48;2.75;;;1.85;;
25780;SDS011;13626;48.128;11.628;2022-11-15T13:30:21;2.90;;;1.80;;
25780;SDS011;13626;48.128;11.628;2022-11-15T13:32:48;2.80;;;1.95;;
25780;SDS011;13626;48.128;11.628;2022-11-15T13:35:36;2.92;;;2.53;;
25780;SDS011;13626;48.128;11.628;2022-11-15T13:38:05;2.72;;;2.05;;
25780;SDS011;13626;48.128;11.628;2022-11-15T13:40:36;2.67;;;2.13;;
25780;SDS011;13626;48.128;11.628;2022-11-15T13:43:15;1.73;;;1.63;;
25780;SDS011;13626;48.128;11.628;2022-11-15T13:45:44;3.90;;;2.20;;
25780;SDS011;13626;48.128;11.628;2022-11-15T13:48:11;2.53;;;1.90;;
25780;SDS011;13626;48.128;11.628;2022-11-15T13:50:38;3.92;;;2.40;;
25780;SDS011;13626;48.128;11.628;2022-11-15T13:53:06;3.50;;;1.90;;
25780;SDS011;13626;48.128;11.628;2022-11-15T13:55:33;4.57;;;2.00;;
25780;SDS011;13626;48.128;11.628;2022-11-15T13:58:01;2.47;;;2.28;;
25780;SDS011;13626;48.128;11.628;2022-11-15T14:00:35;4.95;;;2.60;;
25780;SDS011;13626;48.128;11.628;2022-11-15T14:03:19;2.35;;;2.05;;
25780;SDS011;13626;48.128;11.628;2022-11-15T14:06:07;3.25;;;2.08;;
25780;SDS011;13626;48.128;11.628;2022-11-15T14:11:23;1.90;;;1.67;;
25780;SDS011;13626;48.128;11.628;2022-11-15T14:16:40;2.33;;;1.90;;
25780;SDS011;13626;48.128;11.628;2022-11-15T14:19:50;3.03;;;2.38;;
25780;SDS011;13626;48.128;11.628;2022-11-15T14:24:41;2.38;;;2.00;;
25780;SDS011;13626;48.128;11.628;2022-11-15T14:27:26;3.40;;;2.08;;
25780;SDS011;13626;48.128;11.628;2022-11-15T14:29:54;4.22;;;2.28;;
25780;SDS011;13626;48.128;11.628;2022-11-15T14:32:22;3.72;;;2.30;;
25780;SDS011;13626;48.128;11.628;2022-11-15T14:34:54;3.33;;;2.17;;
25780;SDS011;13626;48.128;11.628;2022-11-15T14:37:29;3.85;;;2.00;;
25780;SDS011;13626;48.128;11.628;2022-11-15T14:40:01;2.35;;;2.10;;
25780;SDS011;13626;48.128;11.628;2022-11-15T14:42:29;2.40;;;2.15;;
25780;SDS011;13626;48.128;11.628;2022-11-15T14:44:56;2.28;;;2.00;;
25780;SDS011;13626;48.128;11.628;2022-11-15T14:47:23;2.28;;;2.00;;
25780;SDS011;13626;48.128;11.628;2022-11-15T14:49:50;2.47;;;2.10;;
25780;SDS011;13626;48.128;11.628;2022-11-15T14:52:28;5.47;;;2.50;;
25780;SDS011;13626;48.128;11.628;2022-11-15T14:54:58;3.00;;;2.40;;
25780;SDS011;13626;48.128;11.628;2022-11-15T14:57:27;3.28;;;2.30;;
25780;SDS011;13626;48.128;11.628;2022-11-15T14:59:54;2.85;;;2.35;;
25780;SDS011;13626;48.128;11.628;2022-11-15T15:02:23;2.53;;;2.30;;
25780;SDS011;13626;48.128;11.628;2022-11-15T15:04:51;3.53;;;2.10;;
25780;SDS011;13626;48.128;11.628;2022-11-15T15:07:18;3.55;;;2.40;;
25780;SDS011;13626;48.128;11.628;2022-11-15T15:09:46;3.92;;;2.53;;
25780;SDS011;13626;48.128;11.628;2022-11-15T15:12:17;3.47;;;2.40;;
25780;SDS011;13626;48.128;11.628;2022-11-15T15:14:45;3.40;;;2.53;;
25780;SDS011;13626;48.128;11.628;2022-11-15T15:17:12;4.43;;;2.38;;
25780;SDS011;13626;48.128;11.628;2022-11-15T15:19:39;4.30;;;2.70;;
25780;SDS011;13626;48.128;11.628;2022-11-15T15:22:14;3.38;;;2.83;;
25780;SDS011;13626;48.128;11.628;2022-11-15T15:24:42;6.03;;;3.00;;
25780;SDS011;13626;48.128;11.628;2022-11-15T15:27:09;5.53;;;3.25;;
25780;SDS011;13626;48.128;11.628;2022-11-15T15:29:37;4.20;;;3.15;;
25780;SDS011;13626;48.128;11.628;2022-11-15T15:32:04;9.90;;;4.20;;
25780;SDS011;13626;48.128;11.628;2022-11-15T15:34:32;6.75;;;4.25;;
25780;SDS011;13626;48.128;11.628;2022-11-15T15:37:06;6.35;;;3.85;;
25780;SDS011;13626;48.128;11.628;2022-11-15T15:39:34;4.50;;;3.40;;
25780;SDS011;13626;48.128;11.628;2022-11-15T15:42:01;6.00;;;3.85;;
25780;SDS011;13626;48.128;11.628;2022-11-15T15:44:29;4.78;;;3.35;;
25780;SDS011;13626;48.128;11.628;2022-11-15T15:46:57;4.32;;;3.05;;
25780;SDS011;13626;48.128;11.628;2022-11-15T15:49:24;3.83;;;3.15;;
25780;SDS011;13626;48.128;11.628;2022-11-15T15:51:51;4.53;;;3.10;;
25780;SDS011;13626;48.128;11.628;2022-11-15T15:54:18;5.32;;;3.22;;
25780;SDS011;13626;48.128;11.628;2022-11-15T15:56:45;4.60;;;3.20;;
25780;SDS011;13626;48.128;11.628;2022-11-15T15:59:18;5.55;;;3.72;;
25780;SDS011;13626;48.128;11.628;2022-11-15T16:01:45;7.07;;;4.00;;
25780;SDS011;13626;48.128;11.628;2022-11-15T16:04:12;7.60;;;3.83;;
25780;SDS011;13626;48.128;11.628;2022-11-15T16:06:40;5.93;;;4.40;;
25780;SDS011;13626;48.128;11.628;2022-11-15T16:09:12;6.10;;;4.32;;
25780;SDS011;13626;48.128;11.628;2022-11-15T16:11:43;6.68;;;4.60;;
25780;SDS011;13626;48.128;11.628;2022-11-15T16:14:10;6.72;;;4.88;;
25780;SDS011;13626;48.128;11.628;2022-11-15T16:16:37;9.02;;;5.57;;
25780;SDS011;13626;48.128;11.628;2022-11-15T16:19:05;8.98;;;5.25;;
25780;SDS011;13626;48.128;11.628;2022-11-15T16:21:32;9.15;;;5.47;;
25780;SDS011;13626;48.128;11.628;2022-11-15T16:23:59;7.30;;;5.45;;
25780;SDS011;13626;48.128;11.628;2022-11-15T16:26:27;6.10;;;4.90;;
25780;SDS011;13626;48.128;11.628;2022-11-15T16:28:55;8.30;;;5.25;;
25780;SDS011;13626;48.128;11.628;2022-11-15T16:31:22;9.30;;;5.68;;
25780;SDS011;13626;48.128;11.628;2022-11-15T16:33:49;6.28;;;5.00;;
25780;SDS011;13626;48.128;11.628;2022-11-15T16:36:23;9.15;;;5.57;;
25780;SDS011;13626;48.128;11.628;2022-11-15T16:38:56;14.43;;;5.90;;
25780;SDS011;13626;48.128;11.628;2022-11-15T16:41:23;9.45;;;5.65;;
25780;SDS011;13626;48.128;11.628;2022-11-15T16:43:50;6.78;;;5.45;;
25780;SDS011;13626;48.128;11.628;2022-11-15T16:48:45;10.52;;;6.43;;
25780;SDS011;13626;48.128;11.628;2022-11-15T16:51:12;8.20;;;5.70;;
25780;SDS011;13626;48.128;11.628;2022-11-15T16:53:39;9.07;;;5.30;;
25780;SDS011;13626;48.128;11.628;2022-11-15T16:56:26;8.85;;;5.65;;
25780;SDS011;13626;48.128;11.628;2022-11-15T16:58:54;7.88;;;5.65;;
25780;SDS011;13626;48.128;11.628;2022-11-15T17:01:25;10.70;;;5.55;;
25780;SDS011;13626;48.128;11.628;2022-11-15T17:03:53;8.27;;;5.47;;
25780;SDS011;13626;48.128;11.628;2022-11-15T17:06:23;7.55;;;5.65;;
25780;SDS011;13626;48.128;11.628;2022-11-15T17:08:50;8.45;;;5.53;;
25780;SDS011;13626;48.128;11.628;2022-11-15T17:11:19;10.30;;;5.63;;
25780;SDS011;13626;48.128;11.628;2022-11-15T17:13:46;8.38;;;5.00;;
25780;SDS011;13626;48.128;11.628;2022-11-15T17:16:15;8.35;;;5.10;;
25780;SDS011;13626;48.128;11.628;2022-11-15T17:18:43;6.75;;;4.97;;
25780;SDS011;13626;48.128;11.628;2022-11-15T17:21:18;9.50;;;5.68;;
25780;SDS011;13626;48.128;11.628;2022-11-15T17:23:45;8.30;;;5.68;;
25780;SDS011;13626;48.128;11.628;2022-11-15T17:26:13;7.15;;;5.45;;
25780;SDS011;13626;48.128;11.628;2022-11-15T17:29:00;8.65;;;6.50;;
25780;SDS011;13626;48.128;11.628;2022-11-15T17:31:29;10.80;;;6.10;;
25780;SDS011;13626;48.128;11.628;2022-11-15T17:34:02;11.52;;;6.35;;
25780;SDS011;13626;48.128;11.628;2022-11-15T17:36:29;8.48;;;6.30;;
25780;SDS011;13626;48.128;11.628;2022-11-15T17:38:56;10.88;;;6.55;;
25780;SDS011;13626;48.128;11.628;2022-11-15T17:41:25;11.18;;;7.43;;
25780;SDS011;13626;48.128;11.628;2022-11-15T17:43:52;10.80;;;7.45;;
25780;SDS011;13626;48.128;11.628;2022-11-15T17:46:21;11.55;;;7.55;;
25780;SDS011;13626;48.128;11.628;2022-11-15T17:48:48;15.10;;;8.00;;
25780;SDS011;13626;48.128;11.628;2022-11-15T17:51:16;17.30;;;10.48;;
25780;SDS011;13626;48.128;11.628;2022-11-15T17:53:44;20.92;;;11.73;;
25780;SDS011;13626;48.128;11.628;2022-11-15T17:56:13;16.20;;;10.00;;
25780;SDS011;13626;48.128;11.628;2022-11-15T17:58:41;19.65;;;9.80;;
25780;SDS011;13626;48.128;11.628;2022-11-15T18:03:35;23.60;;;14.60;;
25780;SDS011;13626;48.128;11.628;2022-11-15T18:06:03;22.77;;;14.18;;
25780;SDS011;13626;48.128;11.628;2022-11-15T18:08:31;28.75;;;16.42;;
25780;SDS011;13626;48.128;11.628;2022-11-15T18:11:12;24.33;;;14.57;;
25780;SDS011;13626;48.128;11.628;2022-11-15T18:13:39;18.70;;;10.77;;
25780;SDS011;13626;48.128;11.628;2022-11-15T18:16:09;14.00;;;9.27;;
25780;SDS011;13626;48.128;11.628;2022-11-15T18:18:36;14.10;;;8.32;;
25780;SDS011;13626;48.128;11.628;2022-11-15T18:21:04;14.32;;;9.20;;
25780;SDS011;13626;48.128;11.628;2022-11-15T18:23:32;15.20;;;9.88;;
25780;SDS011;13626;48.128;11.628;2022-11-15T18:26:00;19.25;;;10.43;;
25780;SDS011;13626;48.128;11.628;2022-11-15T18:28:28;14.88;;;9.98;;
25780;SDS011;13626;48.128;11.628;2022-11-15T18:30:57;15.85;;;9.40;;
25780;SDS011;13626;48.128;11.628;2022-11-15T18:33:25;16.15;;;9.35;;
25780;SDS011;13626;48.128;11.628;2022-11-15T18:35:59;13.25;;;7.55;;
25780;SDS011;13626;48.128;11.628;2022-11-15T18:38:26;16.63;;;9.50;;
25780;SDS011;13626;48.128;11.628;2022-11-15T18:40:57;16.02;;;9.15;;
25780;SDS011;13626;48.128;11.628;2022-11-15T18:43:24;12.60;;;8.15;;
25780;SDS011;13626;48.128;11.628;2022-11-15T18:45:51;20.00;;;10.85;;
25780;SDS011;13626;48.128;11.628;2022-11-15T18:48:19;17.00;;;10.05;;
25780;SDS011;13626;48.128;11.628;2022-11-15T18:50:46;20.80;;;9.55;;
25780;SDS011;13626;48.128;11.628;2022-11-15T18:53:14;14.27;;;8.98;;
25780;SDS011;13626;48.128;11.628;2022-11-15T18:55:41;12.50;;;8.60;;
25780;SDS011;13626;48.128;11.628;2022-11-15T18:58:08;15.85;;;10.15;;
25780;SDS011;13626;48.128;11.628;2022-11-15T19:00:36;18.05;;;9.40;;
25780;SDS011;13626;48.128;11.628;2022-11-15T19:03:03;16.88;;;9.75;;
25780;SDS011;13626;48.128;11.628;2022-11-15T19:05:30;13.35;;;8.23;;
25780;SDS011;13626;48.128;11.628;2022-11-15T19:07:57;12.32;;;7.30;;
25780;SDS011;13626;48.128;11.628;2022-11-15T19:10:24;11.93;;;7.53;;
25780;SDS011;13626;48.128;11.628;2022-11-15T19:12:51;14.57;;;8.18;;
25780;SDS011;13626;48.128;11.628;2022-11-15T19:15:18;14.52;;;8.23;;
25780;SDS011;13626;48.128;11.628;2022-11-15T19:17:45;13.95;;;8.80;;
25780;SDS011;13626;48.128;11.628;2022-11-15T19:20:13;16.20;;;8.25;;
25780;SDS011;13626;48.128;11.628;2022-11-15T19:22:40;15.35;;;7.85;;
25780;SDS011;13626;48.128;11.628;2022-11-15T19:25:07;12.52;;;7.90;;
25780;SDS011;13626;48.128;11.628;2022-11-15T19:27:35;16.73;;;8.25;;
25780;SDS011;13626;48.128;11.628;2022-11-15T19:30:03;13.10;;;7.65;;
25780;SDS011;13626;48.128;11.628;2022-11-15T19:32:30;14.30;;;8.10;;
25780;SDS011;13626;48.128;11.628;2022-11-15T19:34:57;14.80;;;7.75;;
25780;SDS011;13626;48.128;11.628;2022-11-15T19:37:25;13.38;;;8.15;;
25780;SDS011;13626;48.128;11.628;2022-11-15T19:39:52;14.70;;;9.18;;
25780;SDS011;13626;48.128;11.628;2022-11-15T19:42:19;12.27;;;7.90;;
25780;SDS011;13626;48.128;11.628;2022-11-15T19:44:46;14.07;;;8.90;;
25780;SDS011;13626;48.128;11.628;2022-11-15T19:47:13;15.00;;;8.98;;
25780;SDS011;13626;48.128;11.628;2022-11-15T19:49:40;12.90;;;8.50;;
25780;SDS011;13626;48.128;11.628;2022-11-15T19:52:08;15.75;;;8.63;;
25780;SDS011;13626;48.128;11.628;2022-11-15T19:54:35;12.95;;;8.07;;
25780;SDS011;13626;48.128;11.628;2022-11-15T19:57:02;11.75;;;7.30;;
25780;SDS011;13626;48.128;11.628;2022-11-15T19:59:30;11.57;;;7.75;;
25780;SDS011;13626;48.128;11.628;2022-11-15T20:01:57;14.45;;;9.02;;
25780;SDS011;13626;48.128;11.628;2022-11-15T20:04:24;13.55;;;9.05;;
25780;SDS011;13626;48.128;11.628;2022-11-15T20:06:51;14.73;;;9.55;;
25780;SDS011;13626;48.128;11.628;2022-11-15T20:09:18;14.75;;;9.15;;
25780;SDS011;13626;48.128;11.628;2022-11-15T20:11:46;14.52;;;7.30;;
25780;SDS011;13626;48.128;11.628;2022-11-15T20:14:13;13.65;;;8.18;;
25780;SDS011;13626;48.128;11.628;2022-11-15T20:16:40;19.83;;;11.88;;
25780;SDS011;13626;48.128;11.628;2022-11-15T20:19:07;13.55;;;8.85;;
25780;SDS011;13626;48.128;11.628;2022-11-15T20:21:34;13.35;;;7.38;;
25780;SDS011;13626;48.128;11.628;2022-11-15T20:24:02;12.10;;;7.28;;
25780;SDS011;13626;48.128;11.628;2022-11-15T20:26:29;13.88;;;8.13;;
25780;SDS011;13626;48.128;11.628;2022-11-15T20:28:57;13.55;;;7.60;;
25780;SDS011;13626;48.128;11.628;2022-11-15T20:31:26;16.27;;;8.68;;
25780;SDS011;13626;48.128;11.628;2022-11-15T20:33:53;15.45;;;8.82;;
25780;SDS011;13626;48.128;11.628;2022-11-15T20:36:21;14.88;;;7.78;;
25780;SDS011;13626;48.128;11.628;2022-11-15T20:38:48;11.02;;;7.18;;
25780;SDS011;13626;48.128;11.628;2022-11-15T20:41:15;10.90;;;7.82;;
25780;SDS011;13626;48.128;11.628;2022-11-15T20:43:42;14.13;;;8.13;;
25780;SDS011;13626;48.128;11.628;2022-11-15T20:46:10;12.25;;;7.78;;
25780;SDS011;13626;48.128;11.628;2022-11-15T20:48:39;11.63;;;7.45;;
25780;SDS011;13626;48.128;11.628;2022-11-15T20:51:08;12.05;;;8.00;;
25780;SDS011;13626;48.128;11.628;2022-11-15T20:53:36;11.82;;;7.25;;
25780;SDS011;13626;48.128;11.628;2022-11-15T20:56:09;12.60;;;7.90;;
25780;SDS011;13626;48.128;11.628;2022-11-15T20:58:36;12.70;;;8.15;;
25780;SDS011;13626;48.128;11.628;2022-11-15T21:01:07;13.93;;;8.05;;
25780;SDS011;13626;48.128;11.628;2022-11-15T21:03:35;14.57;;;8.20;;
25780;SDS011;13626;48.128;11.628;2022-11-15T21:06:02;13.73;;;7.78;;
25780;SDS011;13626;48.128;11.628;2022-11-15T21:08:29;12.43;;;8.00;;
25780;SDS011;13626;48.128;11.628;2022-11-15T21:11:17;11.23;;;6.90;;
25780;SDS011;13626;48.128;11.628;2022-11-15T21:14:03;13.23;;;8.02;;
25780;SDS011;13626;48.128;11.628;2022-11-15T21:16:34;11.13;;;6.88;;
25780;SDS011;13626;48.128;11.628;2022-11-15T21:19:02;9.93;;;6.78;;
25780;SDS011;13626;48.128;11.628;2022-11-15T21:21:30;10.43;;;7.07;;
25780;SDS011;13626;48.128;11.628;2022-11-15T21:23:57;11.38;;;7.55;;
25780;SDS011;13626;48.128;11.628;2022-11-15T21:26:25;10.10;;;6.75;;
25780;SDS011;13626;48.128;11.628;2022-11-15T21:28:52;11.27;;;7.38;;
25780;SDS011;13626;48.128;11.628;2022-11-15T21:31:19;13.27;;;8.02;;
25780;SDS011;13626;48.128;11.628;2022-11-15T21:33:48;14.20;;;8.95;;
25780;SDS011;13626;48.128;11.628;2022-11-15T21:36:15;14.52;;;8.27;;
25780;SDS011;13626;48.128;11.628;2022-11-15T21:38:42;13.93;;;8.85;;
25780;SDS011;13626;48.128;11.628;2022-11-15T21:41:09;13.55;;;7.88;;
25780;SDS011;13626;48.128;11.628;2022-11-15T21:43:36;17.63;;;8.38;;
25780;SDS011;13626;48.128;11.628;2022-11-15T21:46:04;13.20;;;8.27;;
25780;SDS011;13626;48.128;11.628;2022-11-15T21:48:32;11.25;;;7.65;;
25780;SDS011;13626;48.128;11.628;2022-11-15T21:51:01;15.73;;;8.73;;
25780;SDS011;13626;48.128;11.628;2022-11-15T21:53:29;12.82;;;7.95;;
25780;SDS011;13626;48.128;11.628;2022-11-15T21:55:57;16.83;;;8.80;;
25780;SDS011;13626;48.128;11.628;2022-11-15T21:58:25;13.07;;;8.38;;
25780;SDS011;13626;48.128;11.628;2022-11-15T22:00:53;14.55;;;8.77;;
25780;SDS011;13626;48.128;11.628;2022-11-15T22:03:39;17.33;;;8.85;;
25780;SDS011;13626;48.128;11.628;2022-11-15T22:06:06;16.35;;;8.02;;
25780;SDS011;13626;48.128;11.628;2022-11-15T22:08:41;13.88;;;8.20;;
25780;SDS011;13626;48.128;11.628;2022-11-15T22:11:08;17.42;;;8.70;;
25780;SDS011;13626;48.128;11.628;2022-11-15T22:13:35;13.02;;;8.30;;
25780;SDS011;13626;48.128;11.628;2022-11-15T22:16:03;11.32;;;7.00;;
25780;SDS011;13626;48.128;11.628;2022-11-15T22:18:30;11.13;;;7.60;;
25780;SDS011;13626;48.128;11.628;2022-11-15T22:23:25;12.27;;;6.90;;
25780;SDS011;13626;48.128;11.628;2022-11-15T22:25:53;15.20;;;7.10;;
25780;SDS011;13626;48.128;11.628;2022-11-15T22:28:20;9.35;;;6.70;;
25780;SDS011;13626;48.128;11.628;2022-11-15T22:30:48;11.30;;;7.13;;
25780;SDS011;13626;48.128;11.628;2022-11-15T22:33:16;11.45;;;7.40;;
25780;SDS011;13626;48.128;11.628;2022-11-15T22:35:44;9.95;;;6.45;;
25780;SDS011;13626;48.128;11.628;2022-11-15T22:38:11;11.63;;;6.45;;
25780;SDS011;13626;48.128;11.628;2022-11-15T22:40:39;9.18;;;6.65;;
25780;SDS011;13626;48.128;11.628;2022-11-15T22:43:06;10.55;;;6.85;;
25780;SDS011;13626;48.128;11.628;2022-11-15T22:45:33;12.10;;;6.70;;
25780;SDS011;13626;48.128;11.628;2022-11-15T22:48:00;10.25;;;6.20;;
25780;SDS011;13626;48.128;11.628;2022-11-15T22:50:27;10.35;;;6.78;;
25780;SDS011;13626;48.128;11.628;2022-11-15T22:52:54;11.15;;;6.70;;
25780;SDS011;13626;48.128;11.628;2022-11-15T22:55:22;9.70;;;6.20;;
25780;SDS011;13626;48.128;11.628;2022-11-15T22:57:49;12.27;;;6.68;;
25780;SDS011;13626;48.128;11.628;2022-11-15T23:00:16;10.88;;;7.18;;
25780;SDS011;13626;48.128;11.628;2022-11-15T23:02:43;10.90;;;6.78;;
25780;SDS011;13626;48.128;11.628;2022-11-15T23:05:12;11.15;;;7.18;;
25780;SDS011;13626;48.128;11.628;2022-11-15T23:07:40;10.25;;;6.85;;
25780;SDS011;13626;48.128;11.628;2022-11-15T23:10:07;10.80;;;6.57;;
25780;SDS011;13626;48.128;11.628;2022-11-15T23:12:53;12.68;;;7.63;;
25780;SDS011;13626;48.128;11.628;2022-11-15T23:15:39;11.88;;;7.13;;
25780;SDS011;13626;48.128;11.628;2022-11-15T23:18:25;11.40;;;7.00;;
25780;SDS011;13626;48.128;11.628;2022-11-15T23:20:54;11.52;;;6.95;;
25780;SDS011;13626;48.128;11.628;2022-11-15T23:23:21;10.52;;;7.05;;
25780;SDS011;13626;48.128;11.628;2022-11-15T23:25:56;10.15;;;6.88;;
25780;SDS011;13626;48.128;11.628;2022-11-15T23:28:26;9.70;;;6.72;;
25780;SDS011;13626;48.128;11.628;2022-11-15T23:30:53;9.35;;;6.63;;
25780;SDS011;13626;48.128;11.628;2022-11-15T23:33:38;9.68;;;6.55;;
25780;SDS011;13626;48.128;11.628;2022-11-15T23:36:25;10.35;;;6.18;;
25780;SDS011;13626;48.128;11.628;2022-11-15T23:38:53;10.27;;;6.32;;
25780;SDS011;13626;48.128;11.628;2022-11-15T23:41:20;11.02;;;7.13;;
25780;SDS011;13626;48.128;11.628;2022-11-15T23:43:49;10.27;;;6.30;;
25780;SDS011;13626;48.128;11.628;2022-11-15T23:46:16;11.02;;;7.07;;
25780;SDS011;13626;48.128;11.628;2022-11-15T23:48:43;9.55;;;5.93;;
25780;SDS011;13626;48.128;11.628;2022-11-15T23:51:10;10.32;;;7.07;;
25780;SDS011;13626;48.128;11.628;2022-11-15T23:53:37;10.98;;;7.20;;
25780;SDS011;13626;48.128;11.628;2022-11-15T23:56:06;12.27;;;6.97;;
25780;SDS011;13626;48.128;11.628;2022-11-15T23:58:33;11.40;;;7.57;;
